createdAt,value
2022-10-07T00:00:56.106Z,10.18
2022-10-07T00:03:26.983Z,10.24
2022-10-07T00:06:14.763Z,10.23
2022-10-07T00:08:44.411Z,10.21
2022-10-07T00:11:16.770Z,10.13
2022-10-07T00:13:45.301Z,10.22
2022-10-07T00:16:17.346Z,10.13
2022-10-07T00:18:44.716Z,10.20
2022-10-07T00:21:14.350Z,10.14
2022-10-07T00:23:42.784Z,10.20
2022-10-07T00:26:13.111Z,10.18
2022-10-07T00:28:40.281Z,10.17
2022-10-07T00:31:15.488Z,10.02
2022-10-07T00:33:45.867Z,10.16
2022-10-07T00:36:19.369Z,10.15
2022-10-07T00:38:50.637Z,10.11
2022-10-07T00:41:21.919Z,10.13
2022-10-07T00:43:48.877Z,10.12
2022-10-07T00:46:30.614Z,10.09
2022-10-07T00:49:02.944Z,10.04
2022-10-07T00:51:31.536Z,10.04
2022-10-07T00:53:58.341Z,10.03
2022-10-07T00:56:29.438Z,10.02
2022-10-07T00:58:58.955Z,10.00
2022-10-07T01:01:26.741Z,9.95
2022-10-07T01:03:54.258Z,9.60
2022-10-07T01:06:20.975Z,9.95
2022-10-07T01:08:52.797Z,9.97
2022-10-07T01:11:37.906Z,9.94
2022-10-07T01:14:45.903Z,9.92
2022-10-07T01:17:25.563Z,9.93
2022-10-07T01:20:31.478Z,9.91
2022-10-07T01:23:22.283Z,9.89
2022-10-07T01:26:07.825Z,9.88
2022-10-07T01:28:40.288Z,9.66
2022-10-07T01:31:13.737Z,9.88
2022-10-07T01:33:45.697Z,9.84
2022-10-07T01:36:18.130Z,9.67
2022-10-07T01:38:53.142Z,9.85
2022-10-07T01:41:23.116Z,9.87
2022-10-07T01:43:54.165Z,9.86
2022-10-07T01:46:28.621Z,9.84
2022-10-07T01:48:55.226Z,9.80
2022-10-07T01:51:28.598Z,9.77
2022-10-07T01:54:08.519Z,9.80
2022-10-07T01:56:56.756Z,9.79
2022-10-07T01:59:53.271Z,9.76
2022-10-07T02:02:41.578Z,9.76
2022-10-07T02:05:27.271Z,9.75
2022-10-07T02:08:20.403Z,9.74
2022-10-07T02:10:56.882Z,9.72
2022-10-07T02:13:50.971Z,9.70
2022-10-07T02:16:37.816Z,9.68
2022-10-07T02:19:11.058Z,9.63
2022-10-07T02:21:41.339Z,9.57
2022-10-07T02:24:12.611Z,9.66
2022-10-07T02:26:43.617Z,9.65
2022-10-07T02:29:12.639Z,9.57
2022-10-07T02:31:41.750Z,9.63
2022-10-07T02:34:18.876Z,9.61
2022-10-07T02:36:51.723Z,9.61
2022-10-07T02:39:21.681Z,9.55
2022-10-07T02:42:07.234Z,9.59
2022-10-07T02:44:51.748Z,9.58
2022-10-07T02:47:36.342Z,9.54
2022-10-07T02:50:10.853Z,9.40
2022-10-07T02:52:38.950Z,9.39
2022-10-07T02:55:09.732Z,9.54
2022-10-07T02:57:44.590Z,9.32
2022-10-07T03:00:12.762Z,9.49
2022-10-07T03:02:45.122Z,9.49
2022-10-07T03:05:19.617Z,9.43
2022-10-07T03:07:53.426Z,9.43
2022-10-07T03:10:22.453Z,9.46
2022-10-07T03:12:50.493Z,9.45
2022-10-07T03:15:17.172Z,9.40
2022-10-07T03:17:43.964Z,9.43
2022-10-07T03:20:15.113Z,9.41
2022-10-07T03:22:45.063Z,9.38
2022-10-07T03:25:12.725Z,9.40
2022-10-07T03:27:39.901Z,9.39
2022-10-07T03:30:07.408Z,9.39
2022-10-07T03:32:34.292Z,9.31
2022-10-07T03:35:00.959Z,9.37
2022-10-07T03:37:32.885Z,9.36
2022-10-07T03:39:59.509Z,9.33
2022-10-07T03:42:26.056Z,9.26
2022-10-07T03:44:52.747Z,9.25
2022-10-07T03:47:21.357Z,9.28
2022-10-07T03:49:50.452Z,9.04
2022-10-07T03:52:21.785Z,9.28
2022-10-07T03:54:48.311Z,9.27
2022-10-07T03:57:33.513Z,9.22
2022-10-07T04:00:00.072Z,9.26
2022-10-07T04:02:27.900Z,9.26
2022-10-07T04:04:59.272Z,9.26
2022-10-07T04:07:28.378Z,9.20
2022-10-07T04:09:55.011Z,9.20
2022-10-07T04:12:21.623Z,9.21
2022-10-07T04:14:50.440Z,9.15
2022-10-07T04:17:20.392Z,9.19
2022-10-07T04:19:46.909Z,9.19
2022-10-07T04:22:13.478Z,9.17
2022-10-07T04:24:40.142Z,9.17
2022-10-07T04:27:06.686Z,9.17
2022-10-07T04:29:39.148Z,9.15
2022-10-07T04:32:05.919Z,9.15
2022-10-07T04:34:32.579Z,9.06
2022-10-07T04:37:01.082Z,9.14
2022-10-07T04:39:49.048Z,9.13
2022-10-07T04:42:34.544Z,9.08
2022-10-07T04:45:03.581Z,9.12
2022-10-07T04:47:30.111Z,9.12
2022-10-07T04:49:56.872Z,9.11
2022-10-07T04:52:28.288Z,8.94
2022-10-07T04:54:54.968Z,9.09
2022-10-07T04:57:21.508Z,9.10
2022-10-07T04:59:48.057Z,9.10
2022-10-07T05:02:16.952Z,9.09
2022-10-07T05:04:45.975Z,9.09
2022-10-07T05:07:12.583Z,9.10
2022-10-07T05:09:39.207Z,9.10
2022-10-07T05:12:06.550Z,9.10
2022-10-07T05:14:33.793Z,9.08
2022-10-07T05:17:04.133Z,9.09
2022-10-07T05:19:30.764Z,9.05
2022-10-07T05:21:59.740Z,9.02
2022-10-07T05:24:26.441Z,9.07
2022-10-07T05:26:55.297Z,9.07
2022-10-07T05:29:22.138Z,9.06
2022-10-07T05:31:51.623Z,9.07
2022-10-07T05:34:18.214Z,9.05
2022-10-07T05:36:44.850Z,9.05
2022-10-07T05:39:14.617Z,9.05
2022-10-07T05:41:45.670Z,9.01
2022-10-07T05:44:12.818Z,9.03
2022-10-07T05:46:42.155Z,8.96
2022-10-07T05:49:08.816Z,9.05
2022-10-07T05:51:35.487Z,9.04
2022-10-07T05:54:04.329Z,9.06
2022-10-07T05:56:30.986Z,9.07
2022-10-07T05:58:59.785Z,9.07
2022-10-07T06:01:28.095Z,9.11
2022-10-07T06:03:57.280Z,8.98
2022-10-07T06:06:26.901Z,9.14
2022-10-07T06:08:53.837Z,9.18
2022-10-07T06:11:39.360Z,9.18
2022-10-07T06:14:06.729Z,9.20
2022-10-07T06:16:33.728Z,9.24
2022-10-07T06:19:00.359Z,9.26
2022-10-07T06:21:28.278Z,9.31
2022-10-07T06:23:56.803Z,9.13
2022-10-07T06:26:26.229Z,9.39
2022-10-07T06:28:55.383Z,9.42
2022-10-07T06:31:24.739Z,9.39
2022-10-07T06:33:51.829Z,9.37
2022-10-07T06:36:19.092Z,9.42
2022-10-07T06:38:50.084Z,9.56
2022-10-07T06:41:17.190Z,9.64
2022-10-07T06:43:46.496Z,9.70
2022-10-07T06:46:18.006Z,9.80
2022-10-07T06:48:50.491Z,9.85
2022-10-07T06:51:24.428Z,9.92
2022-10-07T06:53:53.570Z,9.40
2022-10-07T06:56:22.602Z,10.02
2022-10-07T06:58:49.921Z,10.03
2022-10-07T07:01:16.926Z,10.09
2022-10-07T07:03:45.872Z,10.15
2022-10-07T07:06:12.590Z,10.18
2022-10-07T07:08:43.719Z,10.20
2022-10-07T07:11:32.541Z,10.27
2022-10-07T07:13:59.347Z,10.32
2022-10-07T07:16:26.743Z,10.35
2022-10-07T07:18:57.441Z,10.45
2022-10-07T07:21:28.848Z,10.48
2022-10-07T07:23:58.876Z,10.53
2022-10-07T07:26:25.574Z,10.54
2022-10-07T07:29:00.653Z,10.66
2022-10-07T07:31:29.377Z,10.70
2022-10-07T07:34:01.902Z,10.77
2022-10-07T07:36:30.323Z,10.71
2022-10-07T07:38:59.710Z,10.84
2022-10-07T07:41:30.134Z,10.90
2022-10-07T07:43:58.729Z,10.88
2022-10-07T07:46:33.205Z,11.00
2022-10-07T07:48:59.794Z,11.06
2022-10-07T07:51:26.362Z,11.13
2022-10-07T07:53:52.950Z,11.23
2022-10-07T07:56:20.832Z,11.36
2022-10-07T07:58:47.526Z,11.61
2022-10-07T08:01:17.927Z,11.84
2022-10-07T08:03:46.781Z,11.94
2022-10-07T08:06:15.260Z,11.92
2022-10-07T08:08:44.618Z,11.93
2022-10-07T08:11:16.206Z,11.96
2022-10-07T08:13:43.318Z,12.04
2022-10-07T08:16:14.341Z,12.19
2022-10-07T08:18:42.745Z,12.35
2022-10-07T08:21:10.804Z,12.83
2022-10-07T08:23:39.156Z,13.01
2022-10-07T08:26:07.862Z,13.43
2022-10-07T08:28:35.879Z,13.58
2022-10-07T08:31:05.158Z,14.03
2022-10-07T08:33:39.948Z,14.66
2022-10-07T08:36:13.648Z,15.66
2022-10-07T08:38:51.816Z,15.92
2022-10-07T08:41:59.215Z,15.98
2022-10-07T08:44:37.706Z,16.16
2022-10-07T08:47:27.474Z,16.49
2022-10-07T08:50:24.573Z,16.85
2022-10-07T08:53:01.895Z,17.14
2022-10-07T08:55:36.395Z,16.93
2022-10-07T08:58:34.664Z,16.98
2022-10-07T09:01:20.440Z,16.85
2022-10-07T09:04:10.701Z,16.82
2022-10-07T09:06:52.566Z,17.75
2022-10-07T09:09:32.581Z,18.09
2022-10-07T09:12:04.005Z,18.45
2022-10-07T09:14:41.977Z,18.76
2022-10-07T09:17:35.194Z,19.02
2022-10-07T09:20:16.754Z,18.46
2022-10-07T09:22:51.008Z,18.60
2022-10-07T09:25:24.149Z,18.38
2022-10-07T09:27:52.272Z,18.16
2022-10-07T09:30:20.694Z,18.05
2022-10-07T09:32:50.224Z,18.00
2022-10-07T09:35:21.159Z,18.00
2022-10-07T09:38:10.090Z,17.96
2022-10-07T09:41:04.338Z,18.00
2022-10-07T09:43:34.678Z,18.17
2022-10-07T09:46:01.572Z,18.25
2022-10-07T09:48:34.306Z,18.43
2022-10-07T09:51:19.196Z,18.68
2022-10-07T09:54:08.693Z,18.59
2022-10-07T09:56:39.843Z,18.77
2022-10-07T09:59:36.928Z,18.63
2022-10-07T10:02:26.035Z,18.54
2022-10-07T10:04:57.429Z,18.64
2022-10-07T10:07:28.665Z,18.47
2022-10-07T10:09:58.784Z,18.12
2022-10-07T10:12:28.252Z,18.21
2022-10-07T10:14:58.778Z,18.24
2022-10-07T10:17:36.510Z,18.34
2022-10-07T10:20:29.994Z,18.45
2022-10-07T10:23:00.452Z,18.51
2022-10-07T10:26:18.021Z,18.60
2022-10-07T10:29:05.647Z,18.67
2022-10-07T10:31:50.689Z,18.67
2022-10-07T10:34:17.164Z,18.77
2022-10-07T10:36:48.307Z,18.86
2022-10-07T10:39:31.525Z,18.91
2022-10-07T10:42:06.994Z,18.95
2022-10-07T10:44:51.709Z,19.00
2022-10-07T10:47:33.647Z,19.10
2022-10-07T10:50:23.720Z,19.20
2022-10-07T10:53:15.348Z,19.39
2022-10-07T10:56:10.419Z,19.51
2022-10-07T10:59:11.776Z,19.54
2022-10-07T11:01:41.947Z,19.60
2022-10-07T11:04:26.867Z,19.62
2022-10-07T11:06:59.900Z,19.54
2022-10-07T11:09:37.278Z,19.57
2022-10-07T11:12:21.245Z,19.77
2022-10-07T11:14:57.615Z,19.86
2022-10-07T11:17:31.476Z,19.95
2022-10-07T11:20:14.472Z,20.13
2022-10-07T11:22:49.077Z,20.24
2022-10-07T11:25:28.984Z,20.43
2022-10-07T11:28:07.197Z,20.41
2022-10-07T11:30:45.565Z,20.42
2022-10-07T11:33:19.143Z,20.46
2022-10-07T11:36:03.375Z,20.44
2022-10-07T11:38:36.509Z,20.66
2022-10-07T11:41:31.146Z,20.75
2022-10-07T11:44:03.979Z,20.54
2022-10-07T11:46:39.428Z,20.90
2022-10-07T11:49:18.236Z,21.08
2022-10-07T11:52:21.898Z,21.24
2022-10-07T11:55:00.659Z,21.25
2022-10-07T11:57:31.854Z,20.92
2022-10-07T12:00:23.451Z,21.02
2022-10-07T12:02:51.100Z,21.16
2022-10-07T12:05:36.520Z,21.45
2022-10-07T12:08:24.738Z,21.47
2022-10-07T12:10:59.189Z,21.74
2022-10-07T12:13:38.033Z,21.90
2022-10-07T12:16:25.937Z,21.84
2022-10-07T12:19:08.056Z,21.92
2022-10-07T12:22:00.578Z,21.96
2022-10-07T12:24:28.107Z,21.91
2022-10-07T12:27:06.890Z,21.86
2022-10-07T12:30:02.310Z,21.92
2022-10-07T12:32:56.402Z,21.81
2022-10-07T12:35:35.048Z,21.85
2022-10-07T12:38:10.743Z,21.97
2022-10-07T12:40:44.876Z,21.97
2022-10-07T12:43:34.613Z,21.95
2022-10-07T12:46:05.914Z,21.91
2022-10-07T12:48:41.651Z,21.87
2022-10-07T12:51:19.601Z,21.81
2022-10-07T12:53:48.737Z,21.64
2022-10-07T12:56:23.753Z,21.75
2022-10-07T12:59:15.878Z,21.76
2022-10-07T13:01:42.458Z,21.74
2022-10-07T13:04:47.544Z,21.67
2022-10-07T13:07:17.209Z,21.64
2022-10-07T13:09:46.801Z,21.57
2022-10-07T13:12:44.768Z,21.55
2022-10-07T13:15:27.890Z,21.48
2022-10-07T13:18:10.488Z,21.41
2022-10-07T13:20:55.102Z,21.34
2022-10-07T13:23:27.245Z,21.32
2022-10-07T13:25:57.529Z,21.36
2022-10-07T13:28:26.764Z,21.37
2022-10-07T13:30:53.834Z,21.18
2022-10-07T13:33:28.445Z,21.03
2022-10-07T13:36:07.910Z,21.19
2022-10-07T13:38:35.063Z,21.17
2022-10-07T13:41:24.925Z,21.19
2022-10-07T13:43:54.380Z,21.15
2022-10-07T13:46:23.876Z,21.11
2022-10-07T13:48:51.457Z,21.11
2022-10-07T13:51:28.980Z,20.96
2022-10-07T13:53:58.369Z,21.09
2022-10-07T13:56:50.472Z,20.99
2022-10-07T13:59:18.590Z,20.90
2022-10-07T14:01:48.926Z,20.85
2022-10-07T14:04:21.500Z,20.85
2022-10-07T14:06:58.705Z,20.79
2022-10-07T14:09:35.962Z,20.70
2022-10-07T14:12:09.187Z,20.67
2022-10-07T14:14:38.601Z,20.53
2022-10-07T14:17:32.677Z,20.69
2022-10-07T14:20:05.656Z,20.54
2022-10-07T14:22:43.967Z,20.52
2022-10-07T14:25:21.145Z,20.44
2022-10-07T14:27:58.449Z,20.44
2022-10-07T14:30:55.757Z,20.41
2022-10-07T14:33:58.769Z,20.36
2022-10-07T14:36:26.451Z,20.33
2022-10-07T14:38:55.774Z,20.39
2022-10-07T14:41:27.234Z,20.36
2022-10-07T14:44:00.288Z,20.24
2022-10-07T14:46:28.199Z,20.38
2022-10-07T14:48:55.303Z,20.36
2022-10-07T14:51:26.989Z,20.28
2022-10-07T14:53:59.395Z,20.31
2022-10-07T14:56:31.347Z,20.24
2022-10-07T14:58:57.890Z,20.19
2022-10-07T15:01:26.682Z,20.06
2022-10-07T15:03:53.235Z,20.03
2022-10-07T15:06:20.597Z,19.96
2022-10-07T15:08:48.602Z,19.92
2022-10-07T15:11:16.725Z,19.95
2022-10-07T15:13:43.523Z,19.93
2022-10-07T15:16:19.490Z,19.88
2022-10-07T15:18:52.436Z,19.78
2022-10-07T15:21:21.673Z,19.70
2022-10-07T15:23:53.224Z,19.61
2022-10-07T15:26:23.652Z,19.54
2022-10-07T15:28:56.389Z,19.47
2022-10-07T15:31:26.157Z,19.40
2022-10-07T15:33:56.441Z,19.33
2022-10-07T15:36:29.071Z,19.29
2022-10-07T15:38:58.875Z,19.27
2022-10-07T15:41:30.202Z,19.26
2022-10-07T15:43:59.023Z,19.40
2022-10-07T15:46:25.897Z,19.31
2022-10-07T15:48:56.826Z,19.26
2022-10-07T15:51:31.160Z,19.08
2022-10-07T15:53:58.515Z,19.10
2022-10-07T15:56:25.534Z,19.04
2022-10-07T15:58:53.234Z,18.95
2022-10-07T16:01:20.312Z,18.92
2022-10-07T16:03:49.421Z,18.84
2022-10-07T16:06:23.789Z,18.80
2022-10-07T16:08:51.268Z,18.74
2022-10-07T16:11:18.043Z,18.62
2022-10-07T16:13:48.743Z,18.60
2022-10-07T16:16:20.633Z,18.75
2022-10-07T16:18:49.238Z,18.81
2022-10-07T16:21:30.377Z,18.34
2022-10-07T16:24:02.621Z,18.43
2022-10-07T16:26:30.315Z,18.27
2022-10-07T16:29:17.965Z,18.23
2022-10-07T16:31:46.634Z,18.14
2022-10-07T16:34:15.383Z,18.04
2022-10-07T16:36:45.747Z,17.97
2022-10-07T16:39:13.038Z,17.88
2022-10-07T16:41:45.683Z,17.80
2022-10-07T16:44:13.208Z,17.73
2022-10-07T16:46:40.562Z,17.64
2022-10-07T16:49:09.107Z,17.57
2022-10-07T16:51:39.453Z,17.47
2022-10-07T16:54:15.984Z,17.40
2022-10-07T16:56:48.330Z,17.29
2022-10-07T16:59:23.205Z,17.48
2022-10-07T17:01:55.378Z,17.26
2022-10-07T17:04:22.864Z,17.01
2022-10-07T17:06:55.226Z,17.04
2022-10-07T17:09:24.571Z,16.96
2022-10-07T17:11:53.524Z,16.91
2022-10-07T17:14:21.961Z,16.85
2022-10-07T17:16:51.317Z,16.74
2022-10-07T17:19:20.283Z,16.66
2022-10-07T17:21:48.294Z,16.66
2022-10-07T17:24:16.266Z,16.60
2022-10-07T17:26:43.691Z,16.55
2022-10-07T17:29:12.745Z,16.48
2022-10-07T17:31:43.390Z,16.43
2022-10-07T17:34:11.416Z,16.38
2022-10-07T17:36:40.269Z,15.83
2022-10-07T17:39:07.061Z,16.24
2022-10-07T17:41:35.879Z,16.23
2022-10-07T17:44:09.978Z,16.19
2022-10-07T17:46:39.952Z,16.16
2022-10-07T17:49:13.501Z,16.07
2022-10-07T17:51:48.468Z,16.08
2022-10-07T17:54:15.150Z,16.05
2022-10-07T17:56:44.586Z,16.02
2022-10-07T17:59:14.295Z,15.99
2022-10-07T18:01:44.510Z,15.89
2022-10-07T18:04:15.506Z,15.88
2022-10-07T18:06:43.624Z,15.88
2022-10-07T18:09:15.205Z,15.86
2022-10-07T18:12:00.556Z,15.82
2022-10-07T18:14:53.281Z,15.76
2022-10-07T18:17:20.811Z,15.73
2022-10-07T18:19:49.470Z,15.70
2022-10-07T18:22:16.041Z,15.66
2022-10-07T18:24:42.737Z,15.64
2022-10-07T18:27:09.297Z,15.60
2022-10-07T18:29:38.279Z,15.58
2022-10-07T18:32:06.494Z,15.53
2022-10-07T18:34:33.244Z,15.49
2022-10-07T18:37:00.548Z,15.45
2022-10-07T18:39:29.640Z,15.47
2022-10-07T18:41:56.831Z,15.44
2022-10-07T18:44:23.667Z,15.40
2022-10-07T18:46:50.937Z,15.36
2022-10-07T18:49:22.207Z,15.33
2022-10-07T18:51:50.726Z,15.29
2022-10-07T18:54:21.178Z,15.26
2022-10-07T18:56:49.117Z,15.22
2022-10-07T18:59:16.355Z,15.17
2022-10-07T19:01:47.795Z,15.11
2022-10-07T19:04:16.662Z,15.09
2022-10-07T19:06:45.276Z,15.06
2022-10-07T19:09:22.628Z,15.03
2022-10-07T19:11:49.966Z,14.97
2022-10-07T19:14:16.599Z,14.92
2022-10-07T19:16:49.261Z,14.92
2022-10-07T19:19:21.441Z,14.83
2022-10-07T19:21:51.780Z,14.82
2022-10-07T19:24:19.514Z,14.76
2022-10-07T19:26:48.921Z,14.74
2022-10-07T19:29:18.492Z,14.67
2022-10-07T19:31:48.735Z,14.65
2022-10-07T19:34:24.803Z,14.55
2022-10-07T19:36:51.530Z,14.56
2022-10-07T19:39:21.031Z,14.48
2022-10-07T19:41:48.630Z,14.47
2022-10-07T19:44:16.340Z,14.44
2022-10-07T19:46:43.006Z,14.41
2022-10-07T19:49:10.430Z,14.39
2022-10-07T19:51:38.857Z,14.37
2022-10-07T19:54:10.749Z,14.33
2022-10-07T19:56:38.239Z,14.27
2022-10-07T19:59:10.261Z,14.29
2022-10-07T20:01:42.202Z,14.26
2022-10-07T20:04:14.182Z,14.23
2022-10-07T20:06:41.264Z,14.15
2022-10-07T20:09:10.631Z,14.18
2022-10-07T20:11:37.221Z,14.16
2022-10-07T20:14:05.880Z,14.14
2022-10-07T20:16:33.889Z,14.12
2022-10-07T20:19:05.796Z,14.11
2022-10-07T20:21:35.457Z,14.08
2022-10-07T20:24:02.185Z,13.98
2022-10-07T20:26:31.285Z,14.02
2022-10-07T20:29:00.933Z,14.00
2022-10-07T20:31:32.960Z,13.96
2022-10-07T20:34:02.829Z,13.95
2022-10-07T20:36:32.562Z,13.93
2022-10-07T20:39:19.636Z,13.90
2022-10-07T20:42:05.016Z,13.85
2022-10-07T20:44:31.760Z,13.76
2022-10-07T20:46:58.352Z,13.78
2022-10-07T20:49:33.736Z,13.74
2022-10-07T20:52:02.283Z,13.76
2022-10-07T20:54:32.687Z,13.74
2022-10-07T20:57:00.148Z,13.72
2022-10-07T20:59:28.065Z,13.66
2022-10-07T21:01:54.807Z,13.68
2022-10-07T21:04:21.739Z,13.65
2022-10-07T21:06:51.373Z,13.63
2022-10-07T21:09:19.073Z,13.39
2022-10-07T21:11:47.163Z,13.57
2022-10-07T21:14:14.542Z,13.55
2022-10-07T21:16:43.698Z,13.53
2022-10-07T21:19:10.286Z,13.49
2022-10-07T21:21:36.876Z,13.45
2022-10-07T21:24:03.632Z,13.42
2022-10-07T21:26:30.226Z,13.24
2022-10-07T21:28:56.780Z,13.38
2022-10-07T21:31:23.516Z,13.35
2022-10-07T21:33:51.485Z,13.03
2022-10-07T21:36:24.288Z,13.40
2022-10-07T21:38:58.852Z,13.35
2022-10-07T21:41:31.571Z,13.37
2022-10-07T21:43:58.643Z,13.33
2022-10-07T21:46:27.046Z,13.31
2022-10-07T21:48:56.112Z,13.29
2022-10-07T21:51:23.494Z,13.24
2022-10-07T21:53:53.950Z,13.21
2022-10-07T21:56:25.267Z,13.20
2022-10-07T21:58:55.168Z,13.18
2022-10-07T22:01:27.619Z,13.16
2022-10-07T22:03:56.449Z,13.13
2022-10-07T22:06:43.358Z,12.92
2022-10-07T22:09:10.906Z,13.08
2022-10-07T22:11:40.314Z,13.08
2022-10-07T22:14:12.070Z,13.08
2022-10-07T22:16:39.354Z,13.08
2022-10-07T22:19:06.518Z,13.13
2022-10-07T22:21:35.800Z,13.14
2022-10-07T22:24:05.160Z,13.21
2022-10-07T22:26:37.917Z,13.24
2022-10-07T22:29:09.533Z,13.24
2022-10-07T22:31:37.346Z,13.24
2022-10-07T22:34:06.117Z,13.22
2022-10-07T22:36:32.740Z,13.27
2022-10-07T22:39:00.057Z,13.28
2022-10-07T22:41:26.742Z,13.31
2022-10-07T22:43:53.785Z,13.34
2022-10-07T22:46:28.867Z,13.42
2022-10-07T22:48:58.096Z,13.46
2022-10-07T22:51:29.124Z,13.47
2022-10-07T22:53:56.854Z,13.53
2022-10-07T22:56:25.833Z,13.57
2022-10-07T22:58:58.869Z,13.61
2022-10-07T23:01:31.245Z,13.64
2022-10-07T23:04:03.425Z,13.66
2022-10-07T23:06:35.117Z,13.65
2022-10-07T23:09:05.233Z,13.69
2022-10-07T23:11:32.106Z,13.71
2022-10-07T23:13:59.391Z,13.76
2022-10-07T23:16:30.400Z,13.76
2022-10-07T23:18:58.642Z,13.79
2022-10-07T23:21:28.003Z,13.80
2022-10-07T23:24:06.846Z,13.63
2022-10-07T23:26:35.041Z,13.77
2022-10-07T23:29:02.767Z,13.85
2022-10-07T23:31:31.809Z,13.87
2022-10-07T23:33:59.421Z,13.88
2022-10-07T23:36:26.901Z,13.86
2022-10-07T23:38:56.226Z,13.77
2022-10-07T23:41:25.765Z,13.69
2022-10-07T23:43:54.517Z,13.66
2022-10-07T23:46:22.737Z,13.52
2022-10-07T23:48:52.145Z,13.48
2022-10-07T23:51:21.725Z,13.52
2022-10-07T23:53:49.021Z,13.49
2022-10-07T23:56:16.056Z,13.42
2022-10-07T23:58:42.593Z,13.50
